Augusta, Texas
Current Conditions -  °F | °C
As of 11:15 PM on Saturday 20 Dec 2014 (Local Time) from KDKR Reporting Station
Broken Clouds Broken Clouds  
Wind Chill: 50°   Ceiling: 2000
Heat Index: 50°   Visibility: NA
Dew Point: 46°   Wind: 5mph
Humidity: 87%   Direction: 50°NE
Pressure: 30.22"   Gusts: NA
Location:  31.4982°N, 95.4177°W
Report Text: KDKR 210515Z AUTO 05004KT BKN020 10/08 A3022 RMK AO2
Loading
Personal Weather Stations






























Interactive Weather Map New forecast layout! Learn more

10-Day Weather Forecast

Advertisements
Track Severe Weather on mobile